sensor_id;sensor_type;location;lat;lon;timestamp;P1;durP1;ratioP1;P2;durP2;ratioP2
18879;SDS011;9572;52.378;13.404;2023-07-16T00:01:53;3.13;;;2.50;;
18879;SDS011;9572;52.378;13.404;2023-07-16T00:04:20;2.95;;;2.50;;
18879;SDS011;9572;52.378;13.404;2023-07-16T00:06:47;4.43;;;2.45;;
18879;SDS011;9572;52.378;13.404;2023-07-16T00:09:16;4.45;;;2.65;;
18879;SDS011;9572;52.378;13.404;2023-07-16T00:11:43;4.00;;;3.00;;
18879;SDS011;9572;52.378;13.404;2023-07-16T00:14:10;2.88;;;2.58;;
18879;SDS011;9572;52.378;13.404;2023-07-16T00:16:37;4.90;;;2.35;;
18879;SDS011;9572;52.378;13.404;2023-07-16T00:19:04;2.55;;;2.15;;
18879;SDS011;9572;52.378;13.404;2023-07-16T00:21:31;2.50;;;2.40;;
18879;SDS011;9572;52.378;13.404;2023-07-16T00:23:58;2.97;;;2.72;;
18879;SDS011;9572;52.378;13.404;2023-07-16T00:26:26;3.10;;;2.50;;
18879;SDS011;9572;52.378;13.404;2023-07-16T00:28:53;3.33;;;2.72;;
18879;SDS011;9572;52.378;13.404;2023-07-16T00:31:20;4.10;;;2.60;;
18879;SDS011;9572;52.378;13.404;2023-07-16T00:33:47;2.70;;;2.50;;
18879;SDS011;9572;52.378;13.404;2023-07-16T00:36:14;5.40;;;3.03;;
18879;SDS011;9572;52.378;13.404;2023-07-16T00:38:41;4.60;;;2.75;;
18879;SDS011;9572;52.378;13.404;2023-07-16T00:41:10;3.38;;;3.08;;
18879;SDS011;9572;52.378;13.404;2023-07-16T00:43:38;5.03;;;2.85;;
18879;SDS011;9572;52.378;13.404;2023-07-16T00:46:05;3.28;;;2.88;;
18879;SDS011;9572;52.378;13.404;2023-07-16T00:48:33;4.20;;;2.97;;
18879;SDS011;9572;52.378;13.404;2023-07-16T00:51:01;3.42;;;3.13;;
18879;SDS011;9572;52.378;13.404;2023-07-16T00:53:29;5.47;;;3.17;;
18879;SDS011;9572;52.378;13.404;2023-07-16T00:55:56;5.80;;;3.50;;
18879;SDS011;9572;52.378;13.404;2023-07-16T00:58:23;3.72;;;3.10;;
18879;SDS011;9572;52.378;13.404;2023-07-16T01:00:52;9.15;;;3.70;;
18879;SDS011;9572;52.378;13.404;2023-07-16T01:03:19;5.13;;;4.10;;
18879;SDS011;9572;52.378;13.404;2023-07-16T01:05:47;8.30;;;4.50;;
18879;SDS011;9572;52.378;13.404;2023-07-16T01:08:24;6.03;;;4.28;;
18879;SDS011;9572;52.378;13.404;2023-07-16T01:10:56;6.80;;;4.30;;
18879;SDS011;9572;52.378;13.404;2023-07-16T01:13:24;9.10;;;4.78;;
18879;SDS011;9572;52.378;13.404;2023-07-16T01:15:53;6.93;;;5.35;;
18879;SDS011;9572;52.378;13.404;2023-07-16T01:18:20;7.47;;;6.22;;
18879;SDS011;9572;52.378;13.404;2023-07-16T01:20:47;8.68;;;7.50;;
18879;SDS011;9572;52.378;13.404;2023-07-16T01:23:28;8.52;;;7.45;;
18879;SDS011;9572;52.378;13.404;2023-07-16T01:26:18;11.73;;;7.97;;
18879;SDS011;9572;52.378;13.404;2023-07-16T01:31:58;9.93;;;6.32;;
18879;SDS011;9572;52.378;13.404;2023-07-16T01:34:26;6.00;;;5.40;;
18879;SDS011;9572;52.378;13.404;2023-07-16T01:36:58;6.75;;;5.20;;
18879;SDS011;9572;52.378;13.404;2023-07-16T01:39:25;6.82;;;5.10;;
18879;SDS011;9572;52.378;13.404;2023-07-16T01:41:53;6.13;;;4.53;;
18879;SDS011;9572;52.378;13.404;2023-07-16T01:44:20;8.45;;;4.03;;
18879;SDS011;9572;52.378;13.404;2023-07-16T01:46:49;5.75;;;4.60;;
18879;SDS011;9572;52.378;13.404;2023-07-16T01:49:29;6.45;;;4.28;;
18879;SDS011;9572;52.378;13.404;2023-07-16T01:51:56;6.20;;;4.60;;
18879;SDS011;9572;52.378;13.404;2023-07-16T01:54:23;4.75;;;4.10;;
18879;SDS011;9572;52.378;13.404;2023-07-16T01:56:50;3.92;;;3.50;;
18879;SDS011;9572;52.378;13.404;2023-07-16T01:59:17;10.10;;;3.00;;
18879;SDS011;9572;52.378;13.404;2023-07-16T02:01:44;5.20;;;3.17;;
18879;SDS011;9572;52.378;13.404;2023-07-16T02:04:12;4.47;;;3.05;;
18879;SDS011;9572;52.378;13.404;2023-07-16T02:06:39;2.95;;;2.70;;
18879;SDS011;9572;52.378;13.404;2023-07-16T02:09:06;4.22;;;2.30;;
18879;SDS011;9572;52.378;13.404;2023-07-16T02:11:34;5.45;;;2.60;;
18879;SDS011;9572;52.378;13.404;2023-07-16T02:14:01;2.60;;;1.73;;
18879;SDS011;9572;52.378;13.404;2023-07-16T02:16:28;3.65;;;1.70;;
18879;SDS011;9572;52.378;13.404;2023-07-16T02:18:55;1.73;;;1.55;;
18879;SDS011;9572;52.378;13.404;2023-07-16T02:21:23;2.30;;;1.52;;
18879;SDS011;9572;52.378;13.404;2023-07-16T02:23:50;1.92;;;1.30;;
18879;SDS011;9572;52.378;13.404;2023-07-16T02:26:17;5.47;;;1.92;;
18879;SDS011;9572;52.378;13.404;2023-07-16T02:28:44;2.95;;;1.15;;
18879;SDS011;9572;52.378;13.404;2023-07-16T02:31:11;1.40;;;1.30;;
18879;SDS011;9572;52.378;13.404;2023-07-16T02:33:38;3.75;;;1.35;;
18879;SDS011;9572;52.378;13.404;2023-07-16T02:36:05;8.95;;;1.80;;
18879;SDS011;9572;52.378;13.404;2023-07-16T02:38:33;2.45;;;1.10;;
18879;SDS011;9572;52.378;13.404;2023-07-16T02:41:00;3.60;;;1.77;;
18879;SDS011;9572;52.378;13.404;2023-07-16T02:43:27;3.22;;;1.73;;
18879;SDS011;9572;52.378;13.404;2023-07-16T02:45:54;1.38;;;1.27;;
18879;SDS011;9572;52.378;13.404;2023-07-16T02:48:21;4.10;;;1.55;;
18879;SDS011;9572;52.378;13.404;2023-07-16T02:50:48;2.47;;;1.83;;
18879;SDS011;9572;52.378;13.404;2023-07-16T02:53:15;3.42;;;1.45;;
18879;SDS011;9572;52.378;13.404;2023-07-16T02:55:44;2.45;;;1.70;;
18879;SDS011;9572;52.378;13.404;2023-07-16T02:58:11;2.30;;;1.75;;
18879;SDS011;9572;52.378;13.404;2023-07-16T03:00:38;4.15;;;3.75;;
18879;SDS011;9572;52.378;13.404;2023-07-16T03:03:05;3.55;;;2.10;;
18879;SDS011;9572;52.378;13.404;2023-07-16T03:05:32;2.63;;;2.00;;
18879;SDS011;9572;52.378;13.404;2023-07-16T03:07:59;2.80;;;1.63;;
18879;SDS011;9572;52.378;13.404;2023-07-16T03:10:26;2.45;;;1.63;;
18879;SDS011;9572;52.378;13.404;2023-07-16T03:12:55;2.45;;;1.90;;
18879;SDS011;9572;52.378;13.404;2023-07-16T03:15:21;3.65;;;2.17;;
18879;SDS011;9572;52.378;13.404;2023-07-16T03:17:48;2.17;;;1.73;;
18879;SDS011;9572;52.378;13.404;2023-07-16T03:20:15;1.88;;;1.63;;
18879;SDS011;9572;52.378;13.404;2023-07-16T03:22:42;4.28;;;2.15;;
18879;SDS011;9572;52.378;13.404;2023-07-16T03:25:09;2.78;;;2.22;;
18879;SDS011;9572;52.378;13.404;2023-07-16T03:27:36;2.72;;;1.92;;
18879;SDS011;9572;52.378;13.404;2023-07-16T03:30:05;4.75;;;2.25;;
18879;SDS011;9572;52.378;13.404;2023-07-16T03:32:33;2.97;;;2.40;;
18879;SDS011;9572;52.378;13.404;2023-07-16T03:35:00;2.78;;;2.40;;
18879;SDS011;9572;52.378;13.404;2023-07-16T03:37:27;2.30;;;2.10;;
18879;SDS011;9572;52.378;13.404;2023-07-16T03:39:54;3.20;;;2.45;;
18879;SDS011;9572;52.378;13.404;2023-07-16T03:42:21;4.85;;;2.50;;
18879;SDS011;9572;52.378;13.404;2023-07-16T03:44:48;3.42;;;2.80;;
18879;SDS011;9572;52.378;13.404;2023-07-16T03:47:16;3.10;;;2.90;;
18879;SDS011;9572;52.378;13.404;2023-07-16T03:49:43;2.78;;;2.58;;
18879;SDS011;9572;52.378;13.404;2023-07-16T03:52:10;3.15;;;2.72;;
18879;SDS011;9572;52.378;13.404;2023-07-16T03:54:37;3.28;;;2.78;;
18879;SDS011;9572;52.378;13.404;2023-07-16T03:57:04;6.50;;;3.22;;
18879;SDS011;9572;52.378;13.404;2023-07-16T03:59:31;5.45;;;3.25;;
18879;SDS011;9572;52.378;13.404;2023-07-16T04:01:58;3.10;;;2.80;;
18879;SDS011;9572;52.378;13.404;2023-07-16T04:04:26;3.60;;;3.25;;
18879;SDS011;9572;52.378;13.404;2023-07-16T04:06:53;3.20;;;2.90;;
18879;SDS011;9572;52.378;13.404;2023-07-16T04:09:21;4.55;;;3.20;;
18879;SDS011;9572;52.378;13.404;2023-07-16T04:11:48;3.83;;;2.92;;
18879;SDS011;9572;52.378;13.404;2023-07-16T04:14:15;3.50;;;2.85;;
18879;SDS011;9572;52.378;13.404;2023-07-16T04:16:42;5.97;;;3.05;;
18879;SDS011;9572;52.378;13.404;2023-07-16T04:19:09;4.93;;;3.30;;
18879;SDS011;9572;52.378;13.404;2023-07-16T04:21:37;3.95;;;3.17;;
18879;SDS011;9572;52.378;13.404;2023-07-16T04:24:04;3.90;;;3.10;;
18879;SDS011;9572;52.378;13.404;2023-07-16T04:26:32;4.30;;;3.53;;
18879;SDS011;9572;52.378;13.404;2023-07-16T04:28:59;8.75;;;3.97;;
18879;SDS011;9572;52.378;13.404;2023-07-16T04:31:26;4.70;;;3.53;;
18879;SDS011;9572;52.378;13.404;2023-07-16T04:33:53;3.80;;;3.20;;
18879;SDS011;9572;52.378;13.404;2023-07-16T04:36:20;4.22;;;3.63;;
18879;SDS011;9572;52.378;13.404;2023-07-16T04:38:48;3.85;;;3.42;;
18879;SDS011;9572;52.378;13.404;2023-07-16T04:41:16;4.00;;;3.60;;
18879;SDS011;9572;52.378;13.404;2023-07-16T04:43:43;3.95;;;3.55;;
18879;SDS011;9572;52.378;13.404;2023-07-16T04:46:09;5.38;;;3.60;;
18879;SDS011;9572;52.378;13.404;2023-07-16T04:48:37;5.43;;;3.50;;
18879;SDS011;9572;52.378;13.404;2023-07-16T04:51:04;4.57;;;3.63;;
18879;SDS011;9572;52.378;13.404;2023-07-16T04:53:30;5.22;;;3.45;;
18879;SDS011;9572;52.378;13.404;2023-07-16T04:55:59;5.53;;;3.53;;
18879;SDS011;9572;52.378;13.404;2023-07-16T04:58:26;6.22;;;3.70;;
18879;SDS011;9572;52.378;13.404;2023-07-16T05:00:52;4.60;;;3.50;;
18879;SDS011;9572;52.378;13.404;2023-07-16T05:03:19;5.95;;;3.58;;
18879;SDS011;9572;52.378;13.404;2023-07-16T05:05:47;7.80;;;3.38;;
18879;SDS011;9572;52.378;13.404;2023-07-16T05:08:14;4.32;;;3.38;;
18879;SDS011;9572;52.378;13.404;2023-07-16T05:10:40;5.03;;;3.25;;
18879;SDS011;9572;52.378;13.404;2023-07-16T05:13:09;3.58;;;3.13;;
18879;SDS011;9572;52.378;13.404;2023-07-16T05:15:36;3.80;;;3.35;;
18879;SDS011;9572;52.378;13.404;2023-07-16T05:18:04;5.40;;;3.17;;
18879;SDS011;9572;52.378;13.404;2023-07-16T05:20:31;3.15;;;2.75;;
18879;SDS011;9572;52.378;13.404;2023-07-16T05:22:57;2.95;;;2.63;;
18879;SDS011;9572;52.378;13.404;2023-07-16T05:25:24;4.10;;;2.92;;
18879;SDS011;9572;52.378;13.404;2023-07-16T05:27:51;7.97;;;3.28;;
18879;SDS011;9572;52.378;13.404;2023-07-16T05:30:19;7.20;;;2.92;;
18879;SDS011;9572;52.378;13.404;2023-07-16T05:32:46;5.93;;;3.00;;
18879;SDS011;9572;52.378;13.404;2023-07-16T05:35:13;4.07;;;3.00;;
18879;SDS011;9572;52.378;13.404;2023-07-16T05:37:40;6.22;;;2.85;;
18879;SDS011;9572;52.378;13.404;2023-07-16T05:40:07;4.50;;;3.33;;
18879;SDS011;9572;52.378;13.404;2023-07-16T05:42:34;3.83;;;2.92;;
18879;SDS011;9572;52.378;13.404;2023-07-16T05:45:02;5.63;;;2.55;;
18879;SDS011;9572;52.378;13.404;2023-07-16T05:47:30;4.07;;;2.72;;
18879;SDS011;9572;52.378;13.404;2023-07-16T05:49:57;4.45;;;2.80;;
18879;SDS011;9572;52.378;13.404;2023-07-16T05:52:25;6.82;;;3.30;;
18879;SDS011;9572;52.378;13.404;2023-07-16T05:54:52;2.95;;;2.53;;
18879;SDS011;9572;52.378;13.404;2023-07-16T05:57:19;3.00;;;2.72;;
18879;SDS011;9572;52.378;13.404;2023-07-16T05:59:46;3.92;;;2.90;;
18879;SDS011;9572;52.378;13.404;2023-07-16T06:02:13;4.57;;;2.65;;
18879;SDS011;9572;52.378;13.404;2023-07-16T06:04:41;4.15;;;2.78;;
18879;SDS011;9572;52.378;13.404;2023-07-16T06:07:08;6.18;;;2.58;;
18879;SDS011;9572;52.378;13.404;2023-07-16T06:09:35;3.17;;;2.88;;
18879;SDS011;9572;52.378;13.404;2023-07-16T06:12:02;4.15;;;2.78;;
18879;SDS011;9572;52.378;13.404;2023-07-16T06:14:29;3.63;;;2.55;;
18879;SDS011;9572;52.378;13.404;2023-07-16T06:16:56;5.07;;;2.40;;
18879;SDS011;9572;52.378;13.404;2023-07-16T06:19:23;3.30;;;3.00;;
18879;SDS011;9572;52.378;13.404;2023-07-16T06:21:51;7.43;;;2.33;;
18879;SDS011;9572;52.378;13.404;2023-07-16T06:24:18;3.05;;;2.60;;
18879;SDS011;9572;52.378;13.404;2023-07-16T06:26:45;3.10;;;2.60;;
18879;SDS011;9572;52.378;13.404;2023-07-16T06:29:13;3.22;;;2.50;;
18879;SDS011;9572;52.378;13.404;2023-07-16T06:31:42;4.13;;;2.88;;
18879;SDS011;9572;52.378;13.404;2023-07-16T06:34:09;3.47;;;2.60;;
18879;SDS011;9572;52.378;13.404;2023-07-16T06:36:36;2.70;;;2.50;;
18879;SDS011;9572;52.378;13.404;2023-07-16T06:39:05;2.95;;;2.53;;
18879;SDS011;9572;52.378;13.404;2023-07-16T06:41:32;3.63;;;2.63;;
18879;SDS011;9572;52.378;13.404;2023-07-16T06:43:59;5.85;;;2.92;;
18879;SDS011;9572;52.378;13.404;2023-07-16T06:46:26;2.80;;;2.35;;
18879;SDS011;9572;52.378;13.404;2023-07-16T06:48:53;3.47;;;2.58;;
18879;SDS011;9572;52.378;13.404;2023-07-16T06:51:20;4.70;;;2.30;;
18879;SDS011;9572;52.378;13.404;2023-07-16T06:53:47;2.67;;;2.30;;
18879;SDS011;9572;52.378;13.404;2023-07-16T06:56:16;3.15;;;2.30;;
18879;SDS011;9572;52.378;13.404;2023-07-16T06:58:43;5.78;;;2.42;;
18879;SDS011;9572;52.378;13.404;2023-07-16T07:01:10;5.25;;;2.55;;
18879;SDS011;9572;52.378;13.404;2023-07-16T07:03:37;3.25;;;2.50;;
18879;SDS011;9572;52.378;13.404;2023-07-16T07:06:03;4.80;;;2.20;;
18879;SDS011;9572;52.378;13.404;2023-07-16T07:08:30;2.90;;;2.20;;
18879;SDS011;9572;52.378;13.404;2023-07-16T07:10:57;3.25;;;2.15;;
18879;SDS011;9572;52.378;13.404;2023-07-16T07:13:26;2.22;;;1.98;;
18879;SDS011;9572;52.378;13.404;2023-07-16T07:15:54;3.20;;;2.10;;
18879;SDS011;9572;52.378;13.404;2023-07-16T07:18:21;2.95;;;2.45;;
18879;SDS011;9572;52.378;13.404;2023-07-16T07:20:48;2.65;;;2.00;;
18879;SDS011;9572;52.378;13.404;2023-07-16T07:23:16;2.85;;;2.35;;
18879;SDS011;9572;52.378;13.404;2023-07-16T07:25:43;3.72;;;2.10;;
18879;SDS011;9572;52.378;13.404;2023-07-16T07:28:14;3.17;;;2.00;;
18879;SDS011;9572;52.378;13.404;2023-07-16T07:30:42;5.05;;;2.15;;
18879;SDS011;9572;52.378;13.404;2023-07-16T07:33:10;3.85;;;2.20;;
18879;SDS011;9572;52.378;13.404;2023-07-16T07:35:37;3.55;;;2.22;;
18879;SDS011;9572;52.378;13.404;2023-07-16T07:38:04;2.95;;;1.85;;
18879;SDS011;9572;52.378;13.404;2023-07-16T07:40:31;2.97;;;2.10;;
18879;SDS011;9572;52.378;13.404;2023-07-16T07:42:58;4.20;;;2.08;;
18879;SDS011;9572;52.378;13.404;2023-07-16T07:45:25;5.30;;;2.20;;
18879;SDS011;9572;52.378;13.404;2023-07-16T07:47:54;2.45;;;2.25;;
18879;SDS011;9572;52.378;13.404;2023-07-16T07:50:20;3.55;;;2.10;;
18879;SDS011;9572;52.378;13.404;2023-07-16T07:52:48;3.20;;;1.90;;
18879;SDS011;9572;52.378;13.404;2023-07-16T07:55:15;2.75;;;2.03;;
18879;SDS011;9572;52.378;13.404;2023-07-16T07:57:42;2.80;;;1.88;;
18879;SDS011;9572;52.378;13.404;2023-07-16T08:00:10;6.60;;;2.30;;
18879;SDS011;9572;52.378;13.404;2023-07-16T08:02:37;4.70;;;2.20;;
18879;SDS011;9572;52.378;13.404;2023-07-16T08:05:07;4.32;;;2.10;;
18879;SDS011;9572;52.378;13.404;2023-07-16T08:07:35;4.43;;;1.90;;
18879;SDS011;9572;52.378;13.404;2023-07-16T08:10:02;6.18;;;2.28;;
18879;SDS011;9572;52.378;13.404;2023-07-16T08:12:29;2.15;;;1.95;;
18879;SDS011;9572;52.378;13.404;2023-07-16T08:14:56;3.05;;;1.88;;
18879;SDS011;9572;52.378;13.404;2023-07-16T08:17:23;5.90;;;1.85;;
18879;SDS011;9572;52.378;13.404;2023-07-16T08:19:50;2.83;;;1.80;;
18879;SDS011;9572;52.378;13.404;2023-07-16T08:22:19;4.32;;;1.92;;
18879;SDS011;9572;52.378;13.404;2023-07-16T08:24:46;3.97;;;1.90;;
18879;SDS011;9572;52.378;13.404;2023-07-16T08:27:13;3.08;;;1.73;;
18879;SDS011;9572;52.378;13.404;2023-07-16T08:29:40;4.75;;;1.60;;
18879;SDS011;9572;52.378;13.404;2023-07-16T08:32:07;4.18;;;1.58;;
18879;SDS011;9572;52.378;13.404;2023-07-16T08:34:34;3.50;;;1.70;;
18879;SDS011;9572;52.378;13.404;2023-07-16T08:37:01;1.83;;;1.42;;
18879;SDS011;9572;52.378;13.404;2023-07-16T08:39:30;2.05;;;1.63;;
18879;SDS011;9572;52.378;13.404;2023-07-16T08:41:58;3.08;;;1.40;;
18879;SDS011;9572;52.378;13.404;2023-07-16T08:44:25;3.03;;;1.42;;
18879;SDS011;9572;52.378;13.404;2023-07-16T08:46:53;4.30;;;1.77;;
18879;SDS011;9572;52.378;13.404;2023-07-16T08:49:21;4.28;;;1.88;;
18879;SDS011;9572;52.378;13.404;2023-07-16T08:51:49;2.85;;;1.60;;
18879;SDS011;9572;52.378;13.404;2023-07-16T08:54:16;3.15;;;1.40;;
18879;SDS011;9572;52.378;13.404;2023-07-16T08:56:46;3.83;;;1.13;;
18879;SDS011;9572;52.378;13.404;2023-07-16T08:59:14;2.72;;;1.83;;
18879;SDS011;9572;52.378;13.404;2023-07-16T09:01:41;3.05;;;1.55;;
18879;SDS011;9572;52.378;13.404;2023-07-16T09:04:09;4.65;;;1.75;;
18879;SDS011;9572;52.378;13.404;2023-07-16T09:06:36;6.55;;;1.50;;
18879;SDS011;9572;52.378;13.404;2023-07-16T09:09:03;2.38;;;1.48;;
18879;SDS011;9572;52.378;13.404;2023-07-16T09:11:29;2.72;;;1.80;;
18879;SDS011;9572;52.378;13.404;2023-07-16T09:14:01;3.55;;;1.58;;
18879;SDS011;9572;52.378;13.404;2023-07-16T09:16:31;3.38;;;1.40;;
18879;SDS011;9572;52.378;13.404;2023-07-16T09:19:05;2.38;;;1.40;;
18879;SDS011;9572;52.378;13.404;2023-07-16T09:21:33;2.33;;;1.40;;
18879;SDS011;9572;52.378;13.404;2023-07-16T09:24:05;2.75;;;1.70;;
18879;SDS011;9572;52.378;13.404;2023-07-16T09:26:33;1.98;;;1.60;;
18879;SDS011;9572;52.378;13.404;2023-07-16T09:29:06;3.78;;;1.80;;
18879;SDS011;9572;52.378;13.404;2023-07-16T09:31:33;4.78;;;1.60;;
18879;SDS011;9572;52.378;13.404;2023-07-16T09:34:00;2.60;;;1.60;;
18879;SDS011;9572;52.378;13.404;2023-07-16T09:36:27;3.20;;;1.80;;
18879;SDS011;9572;52.378;13.404;2023-07-16T09:38:54;2.95;;;1.67;;
18879;SDS011;9572;52.378;13.404;2023-07-16T09:41:23;2.25;;;1.92;;
18879;SDS011;9572;52.378;13.404;2023-07-16T09:43:50;2.53;;;1.60;;
18879;SDS011;9572;52.378;13.404;2023-07-16T09:46:19;4.35;;;1.80;;
18879;SDS011;9572;52.378;13.404;2023-07-16T09:48:46;4.93;;;2.13;;
18879;SDS011;9572;52.378;13.404;2023-07-16T09:51:13;2.33;;;1.70;;
18879;SDS011;9572;52.378;13.404;2023-07-16T09:53:42;2.88;;;1.88;;
18879;SDS011;9572;52.378;13.404;2023-07-16T09:56:12;3.33;;;1.77;;
18879;SDS011;9572;52.378;13.404;2023-07-16T09:58:40;2.45;;;1.67;;
18879;SDS011;9572;52.378;13.404;2023-07-16T10:01:07;4.25;;;1.80;;
18879;SDS011;9572;52.378;13.404;2023-07-16T10:03:37;4.03;;;1.60;;
18879;SDS011;9572;52.378;13.404;2023-07-16T10:06:15;2.70;;;1.73;;
18879;SDS011;9572;52.378;13.404;2023-07-16T10:08:48;3.97;;;1.70;;
18879;SDS011;9572;52.378;13.404;2023-07-16T10:11:16;2.60;;;1.65;;
18879;SDS011;9572;52.378;13.404;2023-07-16T10:13:43;4.20;;;1.83;;
18879;SDS011;9572;52.378;13.404;2023-07-16T10:16:19;2.97;;;1.90;;
18879;SDS011;9572;52.378;13.404;2023-07-16T10:18:51;2.15;;;1.85;;
18879;SDS011;9572;52.378;13.404;2023-07-16T10:21:22;4.28;;;2.00;;
18879;SDS011;9572;52.378;13.404;2023-07-16T10:23:56;4.22;;;1.90;;
18879;SDS011;9572;52.378;13.404;2023-07-16T10:26:26;4.20;;;1.85;;
18879;SDS011;9572;52.378;13.404;2023-07-16T10:28:54;8.00;;;2.38;;
18879;SDS011;9572;52.378;13.404;2023-07-16T10:31:22;3.47;;;2.08;;
18879;SDS011;9572;52.378;13.404;2023-07-16T10:33:59;3.50;;;1.92;;
18879;SDS011;9572;52.378;13.404;2023-07-16T10:36:26;4.28;;;1.65;;
18879;SDS011;9572;52.378;13.404;2023-07-16T10:38:53;2.42;;;1.70;;
18879;SDS011;9572;52.378;13.404;2023-07-16T10:41:20;2.72;;;1.80;;
18879;SDS011;9572;52.378;13.404;2023-07-16T10:43:48;2.03;;;1.70;;
18879;SDS011;9572;52.378;13.404;2023-07-16T10:46:15;5.13;;;1.90;;
18879;SDS011;9572;52.378;13.404;2023-07-16T10:48:45;2.65;;;1.80;;
18879;SDS011;9572;52.378;13.404;2023-07-16T10:51:15;3.42;;;1.77;;
18879;SDS011;9572;52.378;13.404;2023-07-16T10:53:42;3.85;;;1.75;;
18879;SDS011;9572;52.378;13.404;2023-07-16T10:56:09;2.58;;;1.80;;
18879;SDS011;9572;52.378;13.404;2023-07-16T10:58:36;3.15;;;1.90;;
18879;SDS011;9572;52.378;13.404;2023-07-16T11:01:07;3.08;;;1.67;;
18879;SDS011;9572;52.378;13.404;2023-07-16T11:03:34;3.97;;;1.98;;
18879;SDS011;9572;52.378;13.404;2023-07-16T11:06:05;3.33;;;1.60;;
18879;SDS011;9572;52.378;13.404;2023-07-16T11:08:34;2.38;;;1.65;;
18879;SDS011;9572;52.378;13.404;2023-07-16T11:11:01;2.47;;;1.88;;
18879;SDS011;9572;52.378;13.404;2023-07-16T11:13:28;6.72;;;2.10;;
18879;SDS011;9572;52.378;13.404;2023-07-16T11:15:57;1.90;;;1.70;;
18879;SDS011;9572;52.378;13.404;2023-07-16T11:18:32;3.28;;;1.80;;
18879;SDS011;9572;52.378;13.404;2023-07-16T11:20:59;3.72;;;1.65;;
18879;SDS011;9572;52.378;13.404;2023-07-16T11:23:26;4.75;;;1.88;;
18879;SDS011;9572;52.378;13.404;2023-07-16T11:25:54;4.85;;;1.75;;
18879;SDS011;9572;52.378;13.404;2023-07-16T11:28:21;2.55;;;1.52;;
18879;SDS011;9572;52.378;13.404;2023-07-16T11:30:48;8.50;;;2.00;;
18879;SDS011;9572;52.378;13.404;2023-07-16T11:33:15;4.03;;;1.80;;
18879;SDS011;9572;52.378;13.404;2023-07-16T11:35:42;4.70;;;2.08;;
18879;SDS011;9572;52.378;13.404;2023-07-16T11:38:09;1.88;;;1.40;;
18879;SDS011;9572;52.378;13.404;2023-07-16T11:40:37;2.60;;;1.52;;
18879;SDS011;9572;52.378;13.404;2023-07-16T11:43:09;5.05;;;2.03;;
18879;SDS011;9572;52.378;13.404;2023-07-16T11:45:37;3.58;;;1.60;;
18879;SDS011;9572;52.378;13.404;2023-07-16T11:48:04;2.95;;;1.63;;
18879;SDS011;9572;52.378;13.404;2023-07-16T11:50:31;4.20;;;1.73;;
18879;SDS011;9572;52.378;13.404;2023-07-16T11:52:59;6.57;;;1.50;;
18879;SDS011;9572;52.378;13.404;2023-07-16T11:55:27;3.50;;;1.70;;
18879;SDS011;9572;52.378;13.404;2023-07-16T11:57:54;2.90;;;1.80;;
18879;SDS011;9572;52.378;13.404;2023-07-16T12:00:25;2.58;;;1.50;;
18879;SDS011;9572;52.378;13.404;2023-07-16T12:02:53;2.28;;;1.48;;
18879;SDS011;9572;52.378;13.404;2023-07-16T12:05:20;3.38;;;1.73;;
18879;SDS011;9572;52.378;13.404;2023-07-16T12:07:49;3.35;;;1.70;;
18879;SDS011;9572;52.378;13.404;2023-07-16T12:10:16;2.97;;;1.73;;
18879;SDS011;9572;52.378;13.404;2023-07-16T12:12:43;3.00;;;1.65;;
18879;SDS011;9572;52.378;13.404;2023-07-16T12:15:10;1.45;;;1.23;;
18879;SDS011;9572;52.378;13.404;2023-07-16T12:17:38;4.63;;;2.00;;
18879;SDS011;9572;52.378;13.404;2023-07-16T12:20:07;3.47;;;1.60;;
18879;SDS011;9572;52.378;13.404;2023-07-16T12:22:34;5.07;;;1.70;;
18879;SDS011;9572;52.378;13.404;2023-07-16T12:25:02;3.35;;;1.80;;
18879;SDS011;9572;52.378;13.404;2023-07-16T12:27:29;4.50;;;1.48;;
18879;SDS011;9572;52.378;13.404;2023-07-16T12:29:56;4.85;;;1.80;;
18879;SDS011;9572;52.378;13.404;2023-07-16T12:32:22;3.30;;;1.50;;
18879;SDS011;9572;52.378;13.404;2023-07-16T12:34:51;2.75;;;1.70;;
18879;SDS011;9572;52.378;13.404;2023-07-16T12:37:20;4.65;;;1.50;;
18879;SDS011;9572;52.378;13.404;2023-07-16T12:39:55;2.50;;;1.60;;
18879;SDS011;9572;52.378;13.404;2023-07-16T12:42:22;3.22;;;1.65;;
18879;SDS011;9572;52.378;13.404;2023-07-16T12:44:49;4.50;;;1.65;;
18879;SDS011;9572;52.378;13.404;2023-07-16T12:47:16;2.40;;;1.40;;
18879;SDS011;9572;52.378;13.404;2023-07-16T12:49:43;3.30;;;1.50;;
18879;SDS011;9572;52.378;13.404;2023-07-16T12:52:11;2.30;;;1.40;;
18879;SDS011;9572;52.378;13.404;2023-07-16T12:54:38;4.55;;;1.60;;
18879;SDS011;9572;52.378;13.404;2023-07-16T12:57:05;5.22;;;1.70;;
18879;SDS011;9572;52.378;13.404;2023-07-16T12:59:33;3.80;;;1.70;;
18879;SDS011;9572;52.378;13.404;2023-07-16T13:02:00;3.20;;;1.60;;
18879;SDS011;9572;52.378;13.404;2023-07-16T13:04:27;2.70;;;1.80;;
18879;SDS011;9572;52.378;13.404;2023-07-16T13:06:54;2.90;;;1.30;;
18879;SDS011;9572;52.378;13.404;2023-07-16T13:09:22;10.88;;;1.98;;
18879;SDS011;9572;52.378;13.404;2023-07-16T13:11:49;2.40;;;1.40;;
18879;SDS011;9572;52.378;13.404;2023-07-16T13:14:16;4.38;;;1.60;;
18879;SDS011;9572;52.378;13.404;2023-07-16T13:16:43;4.50;;;1.77;;
18879;SDS011;9572;52.378;13.404;2023-07-16T13:19:10;2.28;;;1.42;;
18879;SDS011;9572;52.378;13.404;2023-07-16T13:21:37;5.40;;;1.83;;
18879;SDS011;9572;52.378;13.404;2023-07-16T13:24:04;2.92;;;1.50;;
18879;SDS011;9572;52.378;13.404;2023-07-16T13:26:33;2.30;;;1.65;;
18879;SDS011;9572;52.378;13.404;2023-07-16T13:29:00;4.20;;;1.92;;
18879;SDS011;9572;52.378;13.404;2023-07-16T13:31:27;6.05;;;1.88;;
18879;SDS011;9572;52.378;13.404;2023-07-16T13:33:53;4.15;;;1.70;;
18879;SDS011;9572;52.378;13.404;2023-07-16T13:36:20;2.70;;;1.70;;
18879;SDS011;9572;52.378;13.404;2023-07-16T13:38:47;9.52;;;1.80;;
18879;SDS011;9572;52.378;13.404;2023-07-16T13:41:14;1.73;;;1.50;;
18879;SDS011;9572;52.378;13.404;2023-07-16T13:43:43;4.45;;;1.55;;
18879;SDS011;9572;52.378;13.404;2023-07-16T13:46:10;2.85;;;2.13;;
18879;SDS011;9572;52.378;13.404;2023-07-16T13:48:36;1.67;;;1.55;;
18879;SDS011;9572;52.378;13.404;2023-07-16T13:51:04;3.58;;;1.60;;
18879;SDS011;9572;52.378;13.404;2023-07-16T13:53:31;6.68;;;1.90;;
18879;SDS011;9572;52.378;13.404;2023-07-16T13:55:58;3.78;;;1.80;;
18879;SDS011;9572;52.378;13.404;2023-07-16T13:58:25;5.95;;;1.60;;
18879;SDS011;9572;52.378;13.404;2023-07-16T14:00:53;2.13;;;1.45;;
18879;SDS011;9572;52.378;13.404;2023-07-16T14:03:20;4.25;;;1.75;;
18879;SDS011;9572;52.378;13.404;2023-07-16T14:05:48;2.50;;;1.58;;
18879;SDS011;9572;52.378;13.404;2023-07-16T14:08:15;3.08;;;1.40;;
18879;SDS011;9572;52.378;13.404;2023-07-16T14:10:42;3.05;;;1.35;;
18879;SDS011;9572;52.378;13.404;2023-07-16T14:13:09;1.88;;;1.40;;
18879;SDS011;9572;52.378;13.404;2023-07-16T14:15:36;4.70;;;1.48;;
18879;SDS011;9572;52.378;13.404;2023-07-16T14:18:04;4.85;;;1.25;;
18879;SDS011;9572;52.378;13.404;2023-07-16T14:20:31;6.20;;;1.55;;
18879;SDS011;9572;52.378;13.404;2023-07-16T14:22:58;4.10;;;1.50;;
18879;SDS011;9572;52.378;13.404;2023-07-16T14:25:25;2.05;;;1.60;;
18879;SDS011;9572;52.378;13.404;2023-07-16T14:27:52;2.90;;;1.73;;
18879;SDS011;9572;52.378;13.404;2023-07-16T14:30:19;3.40;;;1.20;;
18879;SDS011;9572;52.378;13.404;2023-07-16T14:32:46;4.97;;;1.60;;
18879;SDS011;9572;52.378;13.404;2023-07-16T14:35:14;1.20;;;1.02;;
18879;SDS011;9572;52.378;13.404;2023-07-16T14:37:42;1.65;;;1.17;;
18879;SDS011;9572;52.378;13.404;2023-07-16T14:40:09;5.88;;;1.42;;
18879;SDS011;9572;52.378;13.404;2023-07-16T14:42:37;2.45;;;1.40;;
18879;SDS011;9572;52.378;13.404;2023-07-16T14:45:04;1.98;;;1.27;;
18879;SDS011;9572;52.378;13.404;2023-07-16T14:47:33;2.83;;;1.58;;
18879;SDS011;9572;52.378;13.404;2023-07-16T14:50:00;4.55;;;1.70;;
18879;SDS011;9572;52.378;13.404;2023-07-16T14:52:28;6.07;;;1.55;;
18879;SDS011;9572;52.378;13.404;2023-07-16T14:54:55;2.88;;;1.40;;